Time;durP1;ratioP1;P1;durP2;ratioP2;P2;SDS_P1;SDS_P2;PMS_P1;PMS_P2;Temp;Humidity;BMP_temperature;BMP_pressure;BME280_temperature;BME280_humidity;BME280_pressure;Samples;Min_cycle;Max_cycle;Signal;HPM_P1;HPM_P2
2023/12/07 00:03:36;;;;;;;1999.90;999.90;;;;;;;7.84;72.80;101839.63;10419170;28;20053;-65
2023/12/07 00:08:38;;;;;;;1999.90;999.90;;;;;;;7.57;72.44;101842.94;10419018;28;20063;-65
2023/12/07 00:13:40;;;;;;;1999.90;999.90;;;;;;;8.18;70.56;101837.66;10418728;28;20541;-65
2023/12/07 00:18:43;;;;;;;1999.90;999.90;;;;;;;7.77;71.47;101837.16;10418819;28;20077;-65
2023/12/07 00:23:45;;;;;;;1999.90;999.90;;;;;;;7.48;69.58;101832.78;10400809;28;20049;-65
2023/12/07 00:28:48;;;;;;;1999.90;999.90;;;;;;;7.92;68.21;101822.00;10417302;28;20054;-65
2023/12/07 00:33:50;;;;;;;1999.90;999.90;;;;;;;8.24;66.68;101843.59;10418040;28;20053;-65
2023/12/07 00:38:52;;;;;;;1999.90;999.90;;;;;;;7.83;66.33;101843.94;10416307;28;20128;-65
2023/12/07 00:43:55;;;;;;;1999.90;999.90;;;;;;;7.70;66.67;101840.00;10417798;28;20079;-65
2023/12/07 00:48:57;;;;;;;1999.90;999.90;;;;;;;7.37;66.71;101842.66;10417444;28;20064;-65
2023/12/07 00:53:59;;;;;;;1999.90;999.90;;;;;;;6.97;68.13;101847.16;10417161;28;20049;-65
2023/12/07 00:59:02;;;;;;;1999.90;999.90;;;;;;;7.20;67.91;101843.94;10417166;28;20141;-65
2023/12/07 01:04:05;;;;;;;1999.90;999.90;;;;;;;7.13;67.91;101842.41;10417045;28;20060;-65
2023/12/07 01:09:08;;;;;;;1999.90;999.90;;;;;;;7.14;70.35;101838.91;10415442;28;20160;-65
2023/12/07 01:14:11;;;;;;;1999.90;999.90;;;;;;;7.14;70.57;101844.09;10415292;28;20104;-65
2023/12/07 01:19:14;;;;;;;1999.90;999.90;;;;;;;7.46;67.75;101849.34;10415252;28;20045;-65
2023/12/07 01:24:16;;;;;;;1999.90;999.90;;;;;;;6.70;69.39;101862.56;10414855;28;20405;-65
2023/12/07 01:29:19;;;;;;;1999.90;999.90;;;;;;;6.90;67.27;101863.81;10414799;28;20075;-65
2023/12/07 01:34:21;;;;;;;1999.90;999.90;;;;;;;6.97;67.04;101860.16;10414656;28;20056;-65
2023/12/07 01:39:24;;;;;;;1999.90;999.90;;;;;;;7.35;65.62;101863.53;10415868;28;20057;-65
2023/12/07 01:44:27;;;;;;;1999.90;999.90;;;;;;;6.97;64.92;101865.38;10414326;28;20495;-65
2023/12/07 01:49:30;;;;;;;1999.90;999.90;;;;;;;6.88;65.65;101869.06;10415261;28;20059;-65
2023/12/07 01:54:32;;;;;;;1999.90;999.90;;;;;;;7.20;65.14;101872.59;10414073;28;20049;-65
2023/12/07 01:59:35;;;;;;;1999.90;999.90;;;;;;;6.72;66.31;101875.53;10413948;28;20091;-65
2023/12/07 02:04:37;;;;;;;1999.90;999.90;;;;;;;7.03;65.95;101870.44;10415244;28;20069;-65
2023/12/07 02:09:40;;;;;;;1999.90;999.90;;;;;;;6.86;66.15;101865.66;10413750;28;20477;-65
2023/12/07 02:14:42;;;;;;;1999.90;999.90;;;;;;;6.95;65.19;101874.97;10413835;28;20076;-65
2023/12/07 02:20:17;;;;;;;1999.90;999.90;;;;;;;7.39;64.93;101872.13;10414787;28;20484;-65
2023/12/07 02:25:25;;;;;;;1999.90;999.90;;;;;;;6.86;66.37;101875.22;10414596;28;20056;-65
2023/12/07 02:30:27;;;;;;;1999.90;999.90;;;;;;;6.95;66.48;101874.97;10414483;28;20481;-65
2023/12/07 02:35:30;;;;;;;1999.90;999.90;;;;;;;6.59;66.99;101868.91;10413537;28;20072;-65
2023/12/07 02:40:33;;;;;;;1999.90;999.90;;;;;;;6.97;66.54;101867.13;10414398;28;20125;-65
2023/12/07 02:45:36;;;;;;;1999.90;999.90;;;;;;;6.84;65.60;101857.03;10414303;28;20416;-65
2023/12/07 02:50:38;;;;;;;1999.90;999.90;;;;;;;6.59;66.01;101848.09;10414399;28;20128;-65
2023/12/07 02:55:40;;;;;;;1999.90;999.90;;;;;;;6.79;64.91;101847.59;10413986;28;20049;-65
2023/12/07 03:00:43;;;;;;;1999.90;999.90;;;;;;;6.95;65.28;101848.09;10414340;28;20050;-65
2023/12/07 03:05:45;;;;;;;1999.90;999.90;;;;;;;7.22;63.60;101846.53;10421691;28;20103;-65
2023/12/07 03:10:48;;;;;;;1999.90;999.90;;;;;;;6.98;64.48;101853.22;10421306;28;20049;-65
2023/12/07 03:15:50;;;;;;;1999.90;999.90;;;;;;;6.64;64.34;101849.72;10420057;28;20380;-65
2023/12/07 03:20:52;;;;;;;1999.90;999.90;;;;;;;6.91;65.30;101847.31;10420923;28;20053;-65
2023/12/07 03:25:55;;;;;;;1999.90;999.90;;;;;;;6.75;65.84;101846.00;10420712;28;20611;-65
2023/12/07 03:30:57;;;;;;;1999.90;999.90;;;;;;;6.74;65.14;101847.75;10420659;28;20133;-65
2023/12/07 03:36:00;;;;;;;1999.90;999.90;;;;;;;6.55;66.22;101844.72;10431298;22;20029;-64
2023/12/07 03:41:02;;;;;;;1999.90;999.90;;;;;;;6.55;65.68;101856.88;10338820;28;20489;-65
2023/12/07 03:46:07;;;;;;;1999.90;999.90;;;;;;;6.98;64.98;101859.28;10338619;28;20050;-65
2023/12/07 03:51:14;;;;;;;1999.90;999.90;;;;;;;6.88;64.61;101865.63;10338340;28;20050;-65
2023/12/07 03:56:24;;;;;;;1999.90;999.90;;;;;;;6.79;64.33;101865.84;10337127;28;20133;-65
2023/12/07 04:01:28;;;;;;;1999.90;999.90;;;;;;;6.09;66.39;101875.22;10336975;28;20057;-66
2023/12/07 04:06:31;;;;;;;1999.90;999.90;;;;;;;6.80;64.52;101877.97;10337814;28;20078;-65
2023/12/07 04:11:33;;;;;;;1999.90;999.90;;;;;;;6.69;64.22;101875.59;10337445;28;20413;-65
2023/12/07 04:16:36;;;;;;;1999.90;999.90;;;;;;;6.64;65.20;101875.75;10336554;28;20402;-66
2023/12/07 04:21:38;;;;;;;1999.90;999.90;;;;;;;6.81;63.99;101870.13;10337237;28;20486;-65
2023/12/07 04:26:40;;;;;;;1999.90;999.90;;;;;;;6.42;65.00;101890.13;10337025;28;20509;-66
2023/12/07 04:31:44;;;;;;;1999.90;999.90;;;;;;;6.81;64.79;101874.47;10336660;28;20397;-65
2023/12/07 04:36:46;;;;;;;1999.90;999.90;;;;;;;6.45;65.08;101890.91;10336418;28;20062;-65
2023/12/07 04:41:49;;;;;;;1999.90;999.90;;;;;;;5.87;68.45;101892.13;10336355;28;20129;-65
2023/12/07 04:46:51;;;;;;;1999.90;999.90;;;;;;;6.04;68.26;101881.44;10336402;28;20057;-64
2023/12/07 04:51:53;;;;;;;1999.90;999.90;;;;;;;5.91;68.29;101891.19;10336102;28;20050;-65
2023/12/07 04:56:56;;;;;;;1999.90;999.90;;;;;;;6.26;66.49;101903.47;10335772;28;20522;-65
2023/12/07 05:01:58;;;;;;;1999.90;999.90;;;;;;;6.13;69.46;101892.47;10335551;28;20054;-65
2023/12/07 05:07:03;;;;;;;1999.90;999.90;;;;;;;6.02;70.32;101891.84;10335476;28;20054;-65
2023/12/07 05:12:06;;;;;;;1999.90;999.90;;;;;;;6.00;72.55;101888.44;10335131;28;20065;-65
2023/12/07 05:17:09;;;;;;;1999.90;999.90;;;;;;;6.06;71.69;101893.50;10333937;28;20466;-65
2023/12/07 05:22:11;;;;;;;1999.90;999.90;;;;;;;5.57;71.41;101887.50;10333714;28;20057;-65
2023/12/07 05:27:14;;;;;;;1999.90;999.90;;;;;;;7.09;67.83;101886.81;10334680;28;20054;-65
2023/12/07 05:32:17;;;;;;;1999.90;999.90;;;;;;;6.36;70.25;101877.28;10333356;28;20055;-65
2023/12/07 05:37:20;;;;;;;1999.90;999.90;;;;;;;6.24;69.57;101871.44;10334250;28;20499;-65
2023/12/07 05:42:22;;;;;;;1999.90;999.90;;;;;;;5.77;71.28;101863.72;10334349;28;20046;-65
2023/12/07 05:47:25;;;;;;;1999.90;999.90;;;;;;;5.65;70.47;101873.50;10333170;28;20129;-65
2023/12/07 05:52:28;;;;;;;1999.90;999.90;;;;;;;6.28;68.75;101867.03;10332866;28;20095;-64
2023/12/07 05:57:31;;;;;;;1999.90;999.90;;;;;;;6.40;67.45;101863.28;10332717;28;20513;-64
2023/12/07 06:02:33;;;;;;;1999.90;999.90;;;;;;;6.75;66.76;101866.81;10333912;28;20042;-65
2023/12/07 06:07:35;;;;;;;1999.90;999.90;;;;;;;6.11;69.67;101859.59;10333740;28;20086;-65
2023/12/07 06:12:38;;;;;;;1999.90;999.90;;;;;;;6.52;66.43;101868.19;10333490;28;20529;-65
2023/12/07 06:17:40;;;;;;;1999.90;999.90;;;;;;;7.01;66.28;101874.84;10333467;28;20419;-65
2023/12/07 06:22:42;;;;;;;1999.90;999.90;;;;;;;5.54;71.05;101871.97;10333491;28;20152;-65
2023/12/07 06:27:45;;;;;;;1999.90;999.90;;;;;;;5.64;70.85;101880.44;10348357;28;20081;-65
2023/12/07 06:32:47;;;;;;;1999.90;999.90;;;;;;;6.13;69.53;101878.63;10333034;28;20387;-64
2023/12/07 06:37:50;;;;;;;1999.90;999.90;;;;;;;5.56;70.49;101892.72;10336540;28;20062;-64
2023/12/07 06:42:52;;;;;;;1999.90;999.90;;;;;;;5.99;69.84;101889.31;10341044;28;20050;-64
2023/12/07 06:47:54;;;;;;;1999.90;999.90;;;;;;;5.37;71.54;101900.00;10341027;28;20051;-65
2023/12/07 06:52:57;;;;;;;1999.90;999.90;;;;;;;6.36;69.24;101892.88;10339498;28;20093;-65
2023/12/07 06:57:59;;;;;;;1999.90;999.90;;;;;;;6.35;69.55;101899.81;10340373;28;20125;-65
2023/12/07 07:03:02;;;;;;;1999.90;999.90;;;;;;;5.91;71.38;101892.03;10340443;28;20051;-65
2023/12/07 07:08:06;;;;;;;1999.90;999.90;;;;;;;5.27;71.63;101903.66;10340333;28;20125;-64
2023/12/07 07:13:08;;;;;;;1999.90;999.90;;;;;;;4.61;73.53;101905.56;10339759;28;20425;-65
2023/12/07 07:18:11;;;;;;;1999.90;999.90;;;;;;;5.04;72.32;101894.50;10340757;28;20062;-65
2023/12/07 07:23:13;;;;;;;1999.90;999.90;;;;;;;5.61;72.53;101903.03;10338397;28;20129;-65
2023/12/07 07:28:16;;;;;;;1999.90;999.90;;;;;;;6.51;70.32;101901.19;10339593;28;20058;-65
2023/12/07 07:33:18;;;;;;;1999.90;999.90;;;;;;;5.39;73.21;101896.47;10339119;28;20047;-65
2023/12/07 07:38:20;;;;;;;1999.90;999.90;;;;;;;6.19;71.27;101901.91;10338899;28;20058;-64
2023/12/07 07:43:23;;;;;;;1999.90;999.90;;;;;;;5.46;72.42;101919.75;10338675;28;20141;-64
2023/12/07 07:48:25;;;;;;;1999.90;999.90;;;;;;;6.52;70.15;101912.44;10338711;28;20050;-64
2023/12/07 07:53:28;;;;;;;1999.90;999.90;;;;;;;5.79;71.43;101914.81;10337242;28;20054;-64
2023/12/07 07:58:31;;;;;;;1999.90;999.90;;;;;;;6.35;69.40;101927.56;10337053;28;20054;-64
2023/12/07 08:03:33;;;;;;;1999.90;999.90;;;;;;;5.16;74.28;101930.66;10338182;28;20046;-64
2023/12/07 08:08:36;;;;;;;1999.90;999.90;;;;;;;5.85;71.89;101925.97;10337803;28;20050;-64
2023/12/07 08:13:39;;;;;;;1999.90;999.90;;;;;;;5.15;74.96;101928.94;10337534;28;20051;-64
2023/12/07 08:18:41;;;;;;;1999.90;999.90;;;;;;;4.85;76.38;101919.91;10337450;28;20053;-64
2023/12/07 08:23:44;;;;;;;1999.90;999.90;;;;;;;5.42;74.89;101913.75;10337391;28;20048;-64
2023/12/07 08:28:46;;;;;;;1999.90;999.90;;;;;;;5.97;72.03;101898.91;10337128;28;20161;-64
2023/12/07 08:33:49;;;;;;;1999.90;999.90;;;;;;;5.21;75.75;101908.06;10336723;28;20058;-64
2023/12/07 08:38:52;;;;;;;1999.90;999.90;;;;;;;6.53;72.25;101908.94;10335341;28;20129;-64
2023/12/07 08:43:54;;;;;;;1999.90;999.90;;;;;;;5.30;75.92;101908.78;10336444;28;20046;-64
2023/12/07 08:48:58;;;;;;;1999.90;999.90;;;;;;;5.22;77.67;101901.13;10336231;28;20061;-64
2023/12/07 08:54:00;;;;;;;1999.90;999.90;;;;;;;5.71;73.77;101896.78;10334960;28;20074;-64
2023/12/07 08:59:02;;;;;;;1999.90;999.90;;;;;;;5.77;73.40;101902.69;10335259;28;20498;-64
2023/12/07 09:04:05;;;;;;;1999.90;999.90;;;;;;;5.49;73.98;101917.09;10335524;28;20050;-64
2023/12/07 09:09:07;;;;;;;1999.90;999.90;;;;;;;5.73;75.21;101929.66;10334191;28;20178;-64
2023/12/07 09:14:11;;;;;;;1999.90;999.90;;;;;;;4.83;77.24;101919.06;10335420;28;20129;-64
2023/12/07 09:19:14;;;;;;;1999.90;999.90;;;;;;;5.19;76.33;101922.81;10350122;28;20054;-64
2023/12/07 09:24:16;;;;;;;1999.90;999.90;;;;;;;5.42;78.11;101905.97;10334002;28;20046;-65
2023/12/07 09:29:18;;;;;;;1999.90;999.90;;;;;;;5.37;79.35;101918.19;10333642;28;20436;-65
2023/12/07 09:34:21;;;;;;;1999.90;999.90;;;;;;;6.16;74.72;101901.94;10333485;28;20481;-65
2023/12/07 09:39:23;;;;;;;1999.90;999.90;;;;;;;5.95;74.26;101891.09;10334419;28;20062;-65
2023/12/07 09:44:27;;;;;;;1999.90;999.90;;;;;;;5.14;77.05;101895.22;10334456;28;20096;-65
2023/12/07 09:49:30;;;;;;;1999.90;999.90;;;;;;;5.85;77.52;101884.38;10334071;28;20483;-64
2023/12/07 09:54:35;;;;;;;1999.90;999.90;;;;;;;5.93;75.60;101892.88;10332875;28;20047;-64
2023/12/07 09:59:37;;;;;;;1999.90;999.90;;;;;;;6.27;74.87;101899.09;10332658;28;20482;-64
2023/12/07 10:04:40;;;;;;;1999.90;999.90;;;;;;;6.21;76.19;101875.84;10333867;28;20051;-64
2023/12/07 10:09:43;;;;;;;1999.90;999.90;;;;;;;6.47;75.85;101876.13;10333676;28;20112;-64
2023/12/07 10:14:45;;;;;;;1999.90;999.90;;;;;;;6.08;75.18;101867.47;10340388;28;20113;-64
2023/12/07 10:20:11;;;;;;;1999.90;999.90;;;;;;;6.32;76.25;101859.13;10341871;28;20078;-64
2023/12/07 10:25:15;;;;;;;1999.90;999.90;;;;;;;7.32;72.56;101839.31;10341918;28;20080;-64
2023/12/07 10:30:24;;;;;;;1999.90;999.90;;;;;;;6.57;74.92;101831.66;10356579;28;20050;-65
2023/12/07 10:35:26;;;;;;;1999.90;999.90;;;;;;;6.33;75.30;101831.34;10341507;28;20051;-64
2023/12/07 10:40:29;;;;;;;1999.90;999.90;;;;;;;7.00;75.97;101818.44;10339937;28;20141;-64
2023/12/07 10:45:33;;;;;;;1999.90;999.90;;;;;;;6.79;73.43;101813.78;10341208;28;20053;-64
2023/12/07 10:50:41;;;;;;;1999.90;999.90;;;;;;;7.83;71.97;101802.22;10340839;28;20046;-64
2023/12/07 10:55:52;;;;;;;1999.90;999.90;;;;;;;7.43;73.04;101786.00;10339365;28;20529;-64
2023/12/07 11:00:54;;;;;;;1999.90;999.90;;;;;;;7.87;72.31;101771.69;10340502;28;20070;-64
2023/12/07 11:05:57;;;;;;;1999.90;999.90;;;;;;;7.39;75.73;101760.94;10339005;28;20466;-64
2023/12/07 11:11:16;;;;;;;1999.90;999.90;;;;;;;8.02;75.14;101753.00;10340218;28;20054;-64
2023/12/07 11:16:40;;;;;;;1999.90;999.90;;;;;;;8.02;73.83;101745.19;10339709;28;20374;-65
2023/12/07 11:21:43;;;;;;;1999.90;999.90;;;;;;;7.50;74.63;101739.78;10339155;28;20050;-65
2023/12/07 11:26:45;;;;;;;1999.90;999.90;;;;;;;7.43;76.73;101748.66;10339435;28;20082;-64
2023/12/07 11:31:52;;;;;;;1999.90;999.90;;;;;;;8.04;72.49;101737.31;10339379;28;20057;-64
2023/12/07 11:36:54;;;;;;;1999.90;999.90;;;;;;;8.32;73.59;101732.03;10321440;28;20511;-64
2023/12/07 11:42:08;;;;;;;1999.90;999.90;;;;;;;8.04;74.12;101732.94;10339050;28;20050;-64
2023/12/07 11:47:11;;;;;;;1999.90;999.90;;;;;;;8.57;72.96;101712.97;10337401;28;20482;-64
2023/12/07 11:52:18;;;;;;;1999.90;999.90;;;;;;;8.86;72.00;101709.34;10337245;28;20050;-64
2023/12/07 11:57:21;;;;;;;1999.90;999.90;;;;;;;7.61;74.24;101716.84;10337162;28;20050;-63
2023/12/07 12:02:23;;;;;;;1999.90;999.90;;;;;;;7.46;75.50;101708.66;10336925;28;20046;-63
2023/12/07 12:07:26;;;;;;;1999.90;999.90;;;;;;;7.13;76.21;101699.19;10338081;28;20081;-64
2023/12/07 12:12:32;;;;;;;1999.90;999.90;;;;;;;7.07;76.99;101683.72;10337755;28;20069;-64
2023/12/07 12:17:35;;;;;;;1999.90;999.90;;;;;;;7.75;74.03;101682.56;10337511;28;20056;-63
2023/12/07 12:22:38;;;;;;;1999.90;999.90;;;;;;;6.93;76.76;101663.28;10352387;28;20406;-63
2023/12/07 12:27:41;;;;;;;1999.90;999.90;;;;;;;7.45;74.37;101655.69;10337135;28;20078;-63
2023/12/07 12:32:44;;;;;;;1999.90;999.90;;;;;;;7.82;75.03;101668.41;10335755;28;20050;-63
2023/12/07 12:37:48;;;;;;;1999.90;999.90;;;;;;;8.16;74.35;101666.47;10334509;28;20058;-63
2023/12/07 12:42:52;;;;;;;1999.90;999.90;;;;;;;8.32;72.39;101649.41;10335503;28;20054;-63
2023/12/07 12:47:58;;;;;;;1999.90;999.90;;;;;;;7.60;73.62;101655.22;10336236;28;20064;-63
2023/12/07 12:53:09;;;;;;;1999.90;999.90;;;;;;;7.84;72.62;101650.13;10336101;28;20043;-64
2023/12/07 12:58:12;;;;;;;1999.90;999.90;;;;;;;7.71;73.61;101631.41;10334712;28;20054;-63
2023/12/07 13:03:14;;;;;;;1999.90;999.90;;;;;;;7.95;72.85;101623.69;10335805;28;20449;-63
2023/12/07 13:08:17;;;;;;;1999.90;999.90;;;;;;;7.51;74.19;101607.75;10335520;28;20054;-63
2023/12/07 13:13:20;;;;;;;1999.90;999.90;;;;;;;6.88;75.78;101608.75;10350323;28;20138;-63
2023/12/07 13:18:23;;;;;;;1999.90;999.90;;;;;;;7.14;74.50;101594.09;10335033;28;20406;-63
2023/12/07 13:23:25;;;;;;;1999.90;999.90;;;;;;;7.25;74.50;101588.56;10334891;28;20489;-63
2023/12/07 13:28:29;;;;;;;1999.90;999.90;;;;;;;7.84;72.41;101560.63;10334959;28;20060;-63
2023/12/07 13:33:31;;;;;;;1999.90;999.90;;;;;;;8.38;70.79;101547.41;10334450;28;20379;-64
2023/12/07 13:38:44;;;;;;;1999.90;999.90;;;;;;;7.44;73.10;101549.75;10334595;28;20108;-63
2023/12/07 13:43:48;;;;;;;1999.90;999.90;;;;;;;7.97;73.01;101544.50;10334396;28;20057;-63
2023/12/07 13:48:51;;;;;;;1999.90;999.90;;;;;;;8.00;71.87;101538.31;10334081;28;20053;-63
2023/12/07 13:53:55;;;;;;;1999.90;999.90;;;;;;;7.72;72.51;101526.25;10334062;28;20093;-64
2023/12/07 13:59:02;;;;;;;1999.90;999.90;;;;;;;7.88;72.33;101525.72;10334009;28;20046;-64
2023/12/07 14:04:05;;;;;;;1999.90;999.90;;;;;;;8.17;70.32;101512.53;10334001;28;20042;-63
2023/12/07 14:09:11;;;;;;;1999.90;999.90;;;;;;;8.07;70.25;101499.84;10333764;28;20050;-64
2023/12/07 14:14:13;;;;;;;1999.90;999.90;;;;;;;8.71;69.17;101494.91;10332599;28;20133;-64
2023/12/07 14:19:16;;;;;;;1999.90;999.90;;;;;;;8.07;69.82;101485.06;10333725;28;20056;-64
2023/12/07 14:24:25;;;;;;;1999.90;999.90;;;;;;;8.53;69.17;101480.78;10333338;28;20507;-64
2023/12/07 14:29:27;;;;;;;1999.90;999.90;;;;;;;8.85;67.89;101476.06;10332364;28;20051;-64
2023/12/07 14:34:29;;;;;;;1999.90;999.90;;;;;;;8.90;66.28;101471.53;10333081;28;20133;-64
2023/12/07 14:39:38;;;;;;;1999.90;999.90;;;;;;;8.98;66.55;101457.28;10332027;28;20062;-64
2023/12/07 14:44:41;;;;;;;1999.90;999.90;;;;;;;8.83;65.43;101461.41;10331947;28;20050;-64
2023/12/07 14:49:43;;;;;;;1999.90;999.90;;;;;;;8.72;64.96;101448.75;10331738;28;20046;-65
2023/12/07 14:54:47;;;;;;;1999.90;999.90;;;;;;;8.32;66.83;101451.09;10332986;28;20085;-64
2023/12/07 14:59:50;;;;;;;1999.90;999.90;;;;;;;8.47;66.16;101441.88;10337540;28;20081;-64
2023/12/07 15:04:52;;;;;;;1999.90;999.90;;;;;;;7.50;68.17;101440.13;10340242;28;20409;-64
2023/12/07 15:09:54;;;;;;;1999.90;999.90;;;;;;;8.27;66.31;101433.91;10339985;28;20057;-64
2023/12/07 15:14:57;;;;;;;1999.90;999.90;;;;;;;8.48;64.71;101440.97;10338925;28;20057;-64
2023/12/07 15:19:59;;;;;;;1999.90;999.90;;;;;;;8.55;63.90;101428.53;10339746;28;20054;-64
2023/12/07 15:25:02;;;;;;;1999.90;999.90;;;;;;;8.03;64.36;101433.06;10338477;28;20046;-64
2023/12/07 15:30:09;;;;;;;1999.90;999.90;;;;;;;8.48;65.38;101430.50;10338220;28;20054;-64
2023/12/07 15:35:12;;;;;;;1999.90;999.90;;;;;;;7.41;67.09;101427.41;10339119;28;20057;-64
2023/12/07 15:40:14;;;;;;;1999.90;999.90;;;;;;;7.23;70.13;101418.47;10338738;28;20054;-64
2023/12/07 15:45:17;;;;;;;1999.90;999.90;;;;;;;7.87;67.55;101404.06;10338800;28;20081;-64
2023/12/07 15:50:19;;;;;;;1999.90;999.90;;;;;;;7.09;70.62;101394.63;10338557;28;20077;-64
2023/12/07 15:55:21;;;;;;;1999.90;999.90;;;;;;;7.61;69.38;101382.41;10418230;23;20112;-65
2023/12/07 16:00:24;;;;;;;1999.90;999.90;;;;;;;7.49;69.49;101373.28;10419655;28;20140;-65
2023/12/07 16:05:27;;;;;;;1999.90;999.90;;;;;;;7.68;68.34;101375.22;10402141;28;20046;-65
2023/12/07 16:10:29;;;;;;;1999.90;999.90;;;;;;;7.73;68.78;101361.13;10400542;28;20046;-65
2023/12/07 16:15:32;;;;;;;1999.90;999.90;;;;;;;7.19;69.11;101349.97;10419200;28;20052;-64
2023/12/07 16:20:34;;;;;;;1999.90;999.90;;;;;;;7.48;67.49;101342.06;10401311;28;20054;-64
2023/12/07 16:25:37;;;;;;;1999.90;999.90;;;;;;;7.03;70.15;101334.06;10418801;28;20045;-64
2023/12/07 16:30:39;;;;;;;1999.90;999.90;;;;;;;6.75;69.99;101317.66;10418697;28;20077;-65
2023/12/07 16:35:50;;;;;;;1999.90;999.90;;;;;;;6.92;72.05;101317.09;10417418;28;20055;-64
2023/12/07 16:40:52;;;;;;;1999.90;999.90;;;;;;;6.95;70.69;101314.38;10418222;28;20056;-64
2023/12/07 16:45:55;;;;;;;1999.90;999.90;;;;;;;7.00;70.82;101305.50;10417923;28;20041;-64
2023/12/07 16:50:57;;;;;;;1999.90;999.90;;;;;;;6.77;72.92;101295.88;10417439;28;20064;-64
2023/12/07 16:56:00;;;;;;;1999.90;999.90;;;;;;;6.92;71.15;101297.09;10417434;28;20052;-64
2023/12/07 17:01:03;;;;;;;1999.90;999.90;;;;;;;7.12;70.43;101299.03;10416454;28;20056;-61
2023/12/07 17:06:06;;;;;;;1999.90;999.90;;;;;;;6.97;70.86;101291.75;10416069;28;20071;-60
2023/12/07 17:11:08;;;;;;;1999.90;999.90;;;;;;;7.19;70.45;101282.28;10416871;28;20092;-60
2023/12/07 17:16:11;;;;;;;1999.90;999.90;;;;;;;7.02;71.52;101280.25;10416818;28;20049;-60
2023/12/07 17:21:13;;;;;;;1999.90;999.90;;;;;;;7.23;69.57;101278.66;10414996;28;20133;-60
2023/12/07 17:26:16;;;;;;;1999.90;999.90;;;;;;;7.71;67.86;101271.69;10415419;28;20055;-60
2023/12/07 17:31:18;;;;;;;1999.90;999.90;;;;;;;7.18;70.22;101280.59;10416162;28;20503;-60
2023/12/07 17:36:20;;;;;;;1999.90;999.90;;;;;;;7.73;68.33;101267.31;10415941;28;20049;-61
2023/12/07 17:41:23;;;;;;;1999.90;999.90;;;;;;;7.17;69.38;101265.84;10415823;28;20060;-60
2023/12/07 17:46:25;;;;;;;1999.90;999.90;;;;;;;7.05;70.29;101256.72;10415567;28;20551;-60
2023/12/07 17:51:29;;;;;;;1999.90;999.90;;;;;;;7.51;69.52;101240.34;10414342;28;20056;-61
2023/12/07 17:56:32;;;;;;;1999.90;999.90;;;;;;;6.99;69.86;101228.34;10415392;28;20041;-60
2023/12/07 18:01:35;;;;;;;1999.90;999.90;;;;;;;7.01;71.05;101218.69;10415413;28;20053;-60
2023/12/07 18:06:38;;;;;;;1999.90;999.90;;;;;;;7.18;70.66;101212.88;10415296;28;20077;-60
2023/12/07 18:11:42;;;;;;;1999.90;999.90;;;;;;;6.65;71.34;101206.06;10414941;28;20511;-61
2023/12/07 18:16:45;;;;;;;1999.90;999.90;;;;;;;7.18;69.95;101212.03;10414797;28;20045;-60
2023/12/07 18:21:47;;;;;;;1999.90;999.90;;;;;;;7.03;70.64;101200.44;10413665;28;20046;-60
2023/12/07 18:26:50;;;;;;;1999.90;999.90;;;;;;;7.01;70.83;101204.81;10414656;28;20048;-60
2023/12/07 18:31:52;;;;;;;1999.90;999.90;;;;;;;6.89;70.75;101216.50;10414924;28;20054;-60
2023/12/07 18:36:55;;;;;;;1999.90;999.90;;;;;;;7.17;69.27;101211.16;10422865;28;20053;-60
2023/12/07 18:41:57;;;;;;;1999.90;999.90;;;;;;;7.28;68.89;101205.59;10422735;28;20061;-60
2023/12/07 18:46:59;;;;;;;1999.90;999.90;;;;;;;6.87;70.03;101200.94;10421266;28;20041;-60
2023/12/07 18:52:04;;;;;;;1999.90;999.90;;;;;;;6.98;69.03;101192.78;10422070;28;20053;-60
2023/12/07 18:57:06;;;;;;;1999.90;999.90;;;;;;;7.44;69.33;101192.81;10422020;28;20134;-61
2023/12/07 19:02:09;;;;;;;1999.90;999.90;;;;;;;7.35;68.77;101188.81;10421877;28;20054;-60
2023/12/07 19:07:11;;;;;;;1999.90;999.90;;;;;;;7.41;68.31;101174.69;10420732;28;20059;-60
2023/12/07 19:12:13;;;;;;;1999.90;999.90;;;;;;;7.02;68.46;101164.88;10421412;28;20503;-60
2023/12/07 19:17:16;;;;;;;1999.90;999.90;;;;;;;7.03;67.94;101162.22;10421620;28;20133;-60
2023/12/07 19:22:18;;;;;;;1999.90;999.90;;;;;;;6.74;67.74;101172.81;10420018;28;20054;-60
2023/12/07 19:27:20;;;;;;;1999.90;999.90;;;;;;;6.38;68.41;101145.44;10419832;28;20049;-60
2023/12/07 19:32:23;;;;;;;1999.90;999.90;;;;;;;7.02;68.20;101139.69;10420660;28;20053;-61
2023/12/07 19:37:26;;;;;;;1999.90;999.90;;;;;;;7.02;68.76;101126.66;10420795;28;20054;-60
2023/12/07 19:42:29;;;;;;;1999.90;999.90;;;;;;;7.67;65.58;101103.34;10420202;28;20056;-60
2023/12/07 19:47:31;;;;;;;1999.90;999.90;;;;;;;7.29;67.30;101089.22;10402460;28;20046;-60
2023/12/07 19:52:37;;;;;;;1999.90;999.90;;;;;;;7.34;67.62;101074.25;10419427;28;20082;-62
2023/12/07 19:57:42;;;;;;;1999.90;999.90;;;;;;;6.69;68.36;101061.06;10418352;28;20100;-60
2023/12/07 20:02:44;;;;;;;1999.90;999.90;;;;;;;6.91;67.07;101049.88;10419438;28;20120;-60
2023/12/07 20:07:47;;;;;;;1999.90;999.90;;;;;;;7.37;66.69;101043.72;10419304;28;20060;-60
2023/12/07 20:12:53;;;;;;;1999.90;999.90;;;;;;;7.23;65.99;101027.81;10419163;28;20492;-61
2023/12/07 20:17:55;;;;;;;1999.90;999.90;;;;;;;7.21;66.45;101017.47;10418965;28;20077;-60
2023/12/07 20:22:58;;;;;;;1999.90;999.90;;;;;;;7.03;66.30;101016.41;10418604;28;20247;-60
2023/12/07 20:28:00;;;;;;;1999.90;999.90;;;;;;;6.97;66.68;101021.00;10418758;28;20132;-60
2023/12/07 20:33:03;;;;;;;1999.90;999.90;;;;;;;6.98;66.27;101018.34;10418420;28;20111;-60
2023/12/07 20:38:08;;;;;;;1999.90;999.90;;;;;;;6.69;67.20;100999.50;10418281;28;20408;-60
2023/12/07 20:43:10;;;;;;;1999.90;999.90;;;;;;;6.86;66.01;100983.25;10418024;28;20124;-60
2023/12/07 20:48:13;;;;;;;1999.90;999.90;;;;;;;6.95;66.61;100974.22;10417557;28;20491;-60
2023/12/07 20:53:16;;;;;;;1999.90;999.90;;;;;;;6.66;66.61;100959.75;10417792;28;20058;-60
2023/12/07 20:58:21;;;;;;;1999.90;999.90;;;;;;;7.15;65.83;100957.81;10416644;28;20492;-60
2023/12/07 21:03:23;;;;;;;1999.90;999.90;;;;;;;6.94;66.05;100945.63;10416093;28;20509;-60
2023/12/07 21:08:25;;;;;;;1999.90;999.90;;;;;;;6.96;66.05;100931.66;10417042;28;20049;-60
2023/12/07 21:13:28;;;;;;;1999.90;999.90;;;;;;;7.09;66.06;100921.59;10417108;28;20060;-60
2023/12/07 21:18:30;;;;;;;1999.90;999.90;;;;;;;7.40;65.80;100915.13;10416948;28;20051;-60
2023/12/07 21:23:33;;;;;;;1999.90;999.90;;;;;;;7.11;66.55;100904.16;10416688;28;20132;-60
2023/12/07 21:28:35;;;;;;;1999.90;999.90;;;;;;;6.75;66.44;100903.88;10415304;28;20056;-60
2023/12/07 21:33:38;;;;;;;1999.90;999.90;;;;;;;6.62;66.30;100887.91;10416050;28;20060;-60
2023/12/07 21:38:44;;;;;;;1999.90;999.90;;;;;;;7.51;65.69;100889.44;10415069;28;20046;-60
2023/12/07 21:43:46;;;;;;;1999.90;999.90;;;;;;;7.21;66.00;100883.78;10415876;28;20092;-60
2023/12/07 21:48:49;;;;;;;1999.90;999.90;;;;;;;6.95;65.92;100887.47;10415817;28;20484;-60
2023/12/07 21:53:51;;;;;;;1999.90;999.90;;;;;;;7.07;66.22;100869.56;10415593;28;20061;-60
2023/12/07 21:58:53;;;;;;;1999.90;999.90;;;;;;;7.43;65.22;100842.91;10415353;28;20057;-61
2023/12/07 22:03:56;;;;;;;1999.90;999.90;;;;;;;6.61;68.00;100836.81;10415476;28;20054;-61
2023/12/07 22:08:58;;;;;;;1999.90;999.90;;;;;;;7.01;66.87;100814.31;10415079;28;20057;-60
2023/12/07 22:14:00;;;;;;;1999.90;999.90;;;;;;;6.73;67.56;100804.22;10415112;28;20076;-60